Time;durP1;ratioP1;P1;durP2;ratioP2;P2;SDS_P1;SDS_P2;PMS_P1;PMS_P2;Temp;Humidity;BMP_temperature;BMP_pressure;BME280_temperature;BME280_humidity;BME280_pressure;Samples;Min_cycle;Max_cycle;Signal;HPM_P1;HPM_P2
2024/04/05 00:00:16;;;;;;;3.17;1.63;;;;;;;13.63;95.84;100122.97;5032734;28;20040;-68
2024/04/05 00:02:44;;;;;;;5.63;1.30;;;;;;;13.50;96.01;100131.47;5051622;28;20036;-68
2024/04/05 00:05:10;;;;;;;1.92;1.38;;;;;;;13.40;97.67;100131.47;5033299;28;20033;-68
2024/04/05 00:07:37;;;;;;;4.72;1.60;;;;;;;13.57;96.89;100131.47;5036531;28;20366;-68
2024/04/05 00:10:04;;;;;;;2.47;1.58;;;;;;;13.55;96.40;100131.09;5031451;28;20029;-68
2024/04/05 00:12:29;;;;;;;6.38;1.40;;;;;;;13.51;97.39;100143.84;5033534;28;20032;-69
2024/04/05 00:14:54;;;;;;;6.00;1.60;;;;;;;13.52;97.60;100137.28;5028484;28;20040;-67
2024/04/05 00:17:20;;;;;;;7.38;1.40;;;;;;;13.50;97.41;100138.81;5028653;28;20415;-68
2024/04/05 00:19:45;;;;;;;7.45;1.35;;;;;;;13.64;96.95;100143.44;5030267;28;20037;-69
2024/04/05 00:22:11;;;;;;;8.40;2.10;;;;;;;13.74;96.69;100145.38;5063289;28;20041;-68
2024/04/05 00:24:36;;;;;;;2.25;1.42;;;;;;;13.81;96.15;100143.44;5036294;28;20040;-68
2024/04/05 00:27:02;;;;;;;3.55;1.50;;;;;;;13.76;95.35;100146.56;5039708;28;20024;-68
2024/04/05 00:29:27;;;;;;;4.90;1.25;;;;;;;13.79;95.43;100134.16;5031178;28;20128;-69
2024/04/05 00:31:53;;;;;;;5.75;1.63;;;;;;;13.76;95.48;100143.84;5060085;28;20025;-68
2024/04/05 00:34:18;;;;;;;4.72;1.35;;;;;;;13.80;95.04;100136.47;5032728;28;20017;-68
2024/04/05 00:36:44;;;;;;;3.88;1.38;;;;;;;13.80;94.77;100133.75;5030702;28;20513;-69
2024/04/05 00:39:09;;;;;;;1.55;0.93;;;;;;;13.74;95.03;100140.75;5029922;28;20029;-67
2024/04/05 00:41:35;;;;;;;5.32;1.40;;;;;;;13.77;94.96;100145.38;5016594;28;20025;-67
2024/04/05 00:44:00;;;;;;;5.32;1.30;;;;;;;13.77;95.22;100142.66;5027184;28;20034;-69
2024/04/05 00:46:26;;;;;;;1.67;1.05;;;;;;;13.73;95.76;100139.19;5032820;28;20041;-68
2024/04/05 00:48:51;;;;;;;4.20;1.23;;;;;;;13.72;95.99;100153.91;5030781;28;20438;-68
2024/04/05 00:51:17;;;;;;;3.20;1.70;;;;;;;13.70;96.25;100144.59;5035565;28;20035;-66
2024/04/05 00:53:44;;;;;;;6.45;1.58;;;;;;;13.73;95.85;100141.13;5013492;28;20128;-68
2024/04/05 00:56:11;;;;;;;7.82;1.67;;;;;;;13.73;95.76;100139.19;5020568;28;20092;-67
2024/04/05 00:58:37;;;;;;;4.00;1.00;;;;;;;13.69;95.67;100133.00;5067737;28;20093;-67
2024/04/05 01:01:03;;;;;;;7.57;1.50;;;;;;;13.65;95.94;100143.06;5045849;28;20130;-68
2024/04/05 01:03:28;;;;;;;6.57;1.27;;;;;;;13.66;95.02;100138.44;5028547;28;20653;-68
2024/04/05 01:05:54;;;;;;;12.93;1.75;;;;;;;13.63;95.58;100137.25;5032938;28;20030;-68
2024/04/05 01:08:20;;;;;;;3.20;1.50;;;;;;;13.55;95.60;100143.81;5049279;28;20040;-68
2024/04/05 01:10:45;;;;;;;2.95;1.00;;;;;;;13.56;95.52;100145.38;5031095;28;20056;-68
2024/04/05 01:13:12;;;;;;;6.97;1.17;;;;;;;13.49;95.58;100145.41;5038610;28;20025;-71
2024/04/05 01:15:38;;;;;;;8.60;0.95;;;;;;;13.51;95.51;100148.50;5033186;28;20052;-68
2024/04/05 01:18:05;;;;;;;3.78;0.90;;;;;;;13.58;95.54;100151.97;5014088;28;20501;-68
2024/04/05 01:20:33;;;;;;;9.25;1.30;;;;;;;13.38;96.24;100152.72;5034682;28;20040;-67
2024/04/05 01:23:06;;;;;;;2.53;1.10;;;;;;;13.26;96.71;100159.28;5021924;28;20108;-68
2024/04/05 01:25:33;;;;;;;7.72;1.10;;;;;;;13.24;96.89;100155.44;5047407;28;20079;-68
2024/04/05 01:28:00;;;;;;;1.33;0.75;;;;;;;13.31;96.54;100158.91;5016372;28;20065;-68
2024/04/05 01:30:25;;;;;;;7.47;1.33;;;;;;;13.39;96.48;100163.16;5061814;28;20044;-67
2024/04/05 01:32:58;;;;;;;2.97;1.05;;;;;;;13.43;96.20;100169.34;5047680;28;20025;-68
2024/04/05 01:35:24;;;;;;;2.97;1.17;;;;;;;13.40;96.22;100156.59;5035834;28;20057;-67
2024/04/05 01:37:50;;;;;;;3.95;1.60;;;;;;;13.46;96.02;100168.56;5045382;28;20430;-68
2024/04/05 01:40:15;;;;;;;3.33;0.68;;;;;;;13.50;95.90;100166.66;5013516;28;20025;-68
2024/04/05 01:42:41;;;;;;;6.05;1.42;;;;;;;13.45;96.17;100166.25;5037225;28;20417;-68
2024/04/05 01:45:07;;;;;;;3.92;1.02;;;;;;;13.45;96.60;100160.84;5026204;28;20036;-69
2024/04/05 01:47:32;;;;;;;2.47;0.93;;;;;;;13.50;96.78;100169.34;5066549;28;20029;-68
2024/04/05 01:49:58;;;;;;;3.75;0.93;;;;;;;13.61;96.32;100157.75;5033997;28;20519;-68
2024/04/05 01:52:24;;;;;;;2.67;0.77;;;;;;;13.57;95.40;100163.16;5026090;28;20032;-67
2024/04/05 01:54:49;;;;;;;5.05;1.55;;;;;;;13.62;95.93;100162.00;5047534;28;20104;-68
2024/04/05 01:57:15;;;;;;;3.67;0.80;;;;;;;13.63;95.83;100163.56;5027859;28;20558;-68
2024/04/05 01:59:48;;;;;;;7.82;1.08;;;;;;;13.66;96.04;100155.44;5046640;28;20029;-67
2024/04/05 02:02:14;;;;;;;5.97;1.20;;;;;;;13.72;95.02;100153.13;5044959;28;20117;-68
2024/04/05 02:04:39;;;;;;;5.13;1.58;;;;;;;13.77;94.73;100141.88;5034993;28;20168;-68
2024/04/05 02:07:05;;;;;;;4.05;1.17;;;;;;;13.74;94.47;100154.28;5033416;28;20399;-68
2024/04/05 02:09:30;;;;;;;2.88;0.60;;;;;;;13.57;94.94;100153.13;5030225;28;20037;-67
2024/04/05 02:11:58;;;;;;;3.17;0.75;;;;;;;13.66;94.54;100154.66;5041510;28;20028;-68
2024/04/05 02:14:25;;;;;;;7.00;1.50;;;;;;;13.67;94.02;100153.50;5050390;28;20025;-68
2024/04/05 02:16:51;;;;;;;4.88;1.35;;;;;;;13.64;94.50;100148.88;5030903;28;20469;-67
2024/04/05 02:19:16;;;;;;;3.83;0.50;;;;;;;13.57;94.35;100147.69;5029296;28;20026;-68
2024/04/05 02:21:42;;;;;;;1.80;0.90;;;;;;;13.53;94.77;100155.03;5026592;28;20055;-68
2024/04/05 02:24:07;;;;;;;7.57;1.45;;;;;;;13.47;95.18;100161.25;5059518;28;20083;-68
2024/04/05 02:26:33;;;;;;;6.85;1.15;;;;;;;13.43;96.36;100152.34;5026463;28;20083;-67
2024/04/05 02:28:58;;;;;;;10.80;1.60;;;;;;;13.55;95.84;100160.06;5042096;28;20037;-70
2024/04/05 02:31:24;;;;;;;5.38;1.55;;;;;;;13.54;95.96;100153.91;5052139;28;20064;-68
2024/04/05 02:33:50;;;;;;;5.25;0.80;;;;;;;13.47;95.86;100151.19;5030020;28;20071;-67
2024/04/05 02:36:15;;;;;;;4.13;1.05;;;;;;;13.47;95.96;100159.28;5029263;28;20566;-68
2024/04/05 02:38:40;;;;;;;10.40;1.52;;;;;;;13.53;96.13;100146.94;5035625;28;20025;-68
2024/04/05 02:41:07;;;;;;;2.38;0.88;;;;;;;13.65;95.01;100139.56;5016112;28;20079;-69
2024/04/05 02:43:33;;;;;;;10.68;1.75;;;;;;;13.58;95.64;100157.38;5033737;28;20490;-67
2024/04/05 02:45:59;;;;;;;6.03;0.90;;;;;;;13.54;96.27;100167.44;5025383;28;20052;-68
2024/04/05 02:48:25;;;;;;;5.20;1.02;;;;;;;13.57;96.55;100163.16;5043361;28;20028;-68
2024/04/05 02:50:50;;;;;;;8.45;1.10;;;;;;;13.63;96.17;100167.03;5026439;28;20080;-67
2024/04/05 02:53:16;;;;;;;5.68;1.67;;;;;;;13.62;95.94;100160.09;5025675;28;20026;-67
2024/04/05 02:55:41;;;;;;;14.25;1.70;;;;;;;13.59;95.63;100171.66;5050581;28;20027;-67
2024/04/05 02:58:07;;;;;;;5.28;1.20;;;;;;;13.43;96.75;100157.75;5026309;28;20502;-68
2024/04/05 03:00:36;;;;;;;8.77;1.33;;;;;;;13.45;96.61;100164.31;5029254;28;20068;-67
2024/04/05 03:03:02;;;;;;;6.90;1.13;;;;;;;13.51;96.61;100165.47;5024585;28;20036;-68
2024/04/05 03:05:28;;;;;;;8.23;0.85;;;;;;;13.44;97.65;100162.78;5026279;28;20049;-68
2024/04/05 03:07:53;;;;;;;6.18;1.23;;;;;;;13.61;96.81;100169.34;5042336;28;20041;-68
2024/04/05 03:10:19;;;;;;;2.83;0.70;;;;;;;13.57;96.36;100165.84;5030921;28;20029;-68
2024/04/05 03:12:45;;;;;;;7.82;1.23;;;;;;;13.59;96.96;100172.44;5027783;28;20059;-68
2024/04/05 03:15:10;;;;;;;13.38;1.48;;;;;;;13.58;96.48;100181.72;5027785;28;20029;-68
2024/04/05 03:17:35;;;;;;;7.30;1.13;;;;;;;13.53;97.29;100184.03;5030319;28;20033;-68
2024/04/05 03:20:01;;;;;;;9.48;1.40;;;;;;;13.62;96.77;100186.34;5044138;28;20458;-68
2024/04/05 03:22:27;;;;;;;7.55;1.40;;;;;;;13.66;96.58;100198.75;5031430;28;20106;-68
2024/04/05 03:24:53;;;;;;;6.13;0.85;;;;;;;13.74;96.57;100194.88;5031796;28;20041;-68
2024/04/05 03:27:19;;;;;;;2.03;0.70;;;;;;;13.72;96.45;100194.50;5027834;28;20040;-68
2024/04/05 03:29:44;;;;;;;6.50;1.23;;;;;;;13.71;96.48;100194.84;5044234;28;20033;-68
2024/04/05 03:32:10;;;;;;;4.18;1.65;;;;;;;13.85;95.36;100201.06;5027636;28;20052;-68
2024/04/05 03:34:36;;;;;;;10.45;2.20;;;;;;;13.75;95.14;100196.41;5042180;28;20033;-68
2024/04/05 03:37:01;;;;;;;5.25;2.03;;;;;;;13.61;96.37;100201.81;5032702;28;20488;-68
2024/04/05 03:39:27;;;;;;;3.33;1.42;;;;;;;13.45;96.44;100204.13;5039563;28;20155;-69
2024/04/05 03:41:53;;;;;;;11.85;1.48;;;;;;;13.56;96.08;100199.50;5033579;28;20091;-69
2024/04/05 03:44:19;;;;;;;4.55;0.98;;;;;;;13.45;96.06;100198.72;5034087;28;20036;-67
2024/04/05 03:46:47;;;;;;;11.38;2.33;;;;;;;13.53;95.46;100205.66;5050044;28;20041;-67
2024/04/05 03:49:13;;;;;;;9.63;1.38;;;;;;;13.52;95.45;100206.84;5030998;28;20032;-68
2024/04/05 03:51:38;;;;;;;6.68;1.17;;;;;;;13.34;95.84;100201.41;5008227;28;20564;-68
2024/04/05 03:54:04;;;;;;;11.13;1.40;;;;;;;13.33;96.30;100207.97;5029577;28;20029;-68
2024/04/05 03:56:29;;;;;;;8.73;1.20;;;;;;;13.37;96.19;100208.75;5045772;28;20116;-69
2024/04/05 03:58:55;;;;;;;7.47;1.50;;;;;;;13.37;95.59;100202.56;5043373;28;20041;-67
2024/04/05 04:01:20;;;;;;;5.50;0.85;;;;;;;13.25;95.00;100205.63;5025281;28;20040;-67
2024/04/05 04:03:46;;;;;;;2.42;0.95;;;;;;;13.18;96.18;100211.03;5022233;28;20095;-68
2024/04/05 04:06:11;;;;;;;8.75;1.25;;;;;;;13.19;96.38;100209.88;5031109;28;20584;-68
2024/04/05 04:08:37;;;;;;;9.40;0.93;;;;;;;13.18;96.28;100214.50;5027423;28;20517;-67
2024/04/05 04:11:04;;;;;;;8.68;1.95;;;;;;;13.16;96.50;100210.66;5040273;28;20118;-67
2024/04/05 04:13:30;;;;;;;4.28;2.08;;;;;;;13.14;95.46;100216.41;5012458;28;20033;-69
2024/04/05 04:15:56;;;;;;;6.93;2.05;;;;;;;13.11;95.58;100211.78;5028566;28;20044;-67
2024/04/05 04:18:21;;;;;;;11.50;2.58;;;;;;;13.07;96.30;100218.31;5044753;28;20299;-67
2024/04/05 04:20:48;;;;;;;9.05;1.20;;;;;;;12.96;96.70;100212.09;5059618;28;20398;-67
2024/04/05 04:23:14;;;;;;;8.70;0.90;;;;;;;12.91;97.30;100217.88;5027339;28;20064;-68
2024/04/05 04:25:39;;;;;;;3.10;1.02;;;;;;;12.94;97.53;100222.50;5030376;28;20029;-68
2024/04/05 04:28:07;;;;;;;4.57;0.68;;;;;;;12.88;96.97;100224.03;5032686;28;20033;-68
2024/04/05 04:30:33;;;;;;;7.78;1.17;;;;;;;12.94;97.71;100227.91;5044328;28;20180;-67
2024/04/05 04:32:59;;;;;;;9.38;1.23;;;;;;;13.03;95.72;100228.31;5031789;28;20127;-68
2024/04/05 04:35:24;;;;;;;6.50;1.52;;;;;;;12.90;96.49;100227.13;5031152;28;20083;-68
2024/04/05 04:37:49;;;;;;;13.57;1.75;;;;;;;13.02;95.92;100229.50;5012513;28;20056;-67
2024/04/05 04:40:15;;;;;;;10.38;1.52;;;;;;;13.00;96.22;100221.75;5036841;28;20034;-68
2024/04/05 04:42:40;;;;;;;9.30;1.30;;;;;;;12.94;95.86;100226.00;5028611;28;20423;-67
2024/04/05 04:45:07;;;;;;;9.57;1.45;;;;;;;12.99;96.06;100231.00;5028726;28;20045;-68
2024/04/05 04:47:32;;;;;;;12.40;1.52;;;;;;;12.98;95.85;100239.50;5015944;28;20033;-68
2024/04/05 04:49:59;;;;;;;8.02;1.40;;;;;;;12.99;96.12;100238.38;5022348;28;20102;-68
2024/04/05 04:52:25;;;;;;;10.25;1.63;;;;;;;13.06;95.42;100227.59;5031475;28;20040;-67
2024/04/05 04:54:53;;;;;;;6.80;1.00;;;;;;;13.06;95.59;100236.50;5056963;28;20029;-67
2024/04/05 04:57:19;;;;;;;12.45;1.30;;;;;;;13.00;95.75;100237.97;5044197;28;20053;-67
2024/04/05 04:59:44;;;;;;;7.22;1.20;;;;;;;13.15;95.93;100226.09;5026893;28;20048;-67
2024/04/05 05:02:10;;;;;;;9.23;1.60;;;;;;;13.20;94.33;100228.41;5018253;28;20520;-68
2024/04/05 05:04:35;;;;;;;5.05;1.55;;;;;;;13.18;94.83;100221.84;5032432;28;20111;-68
2024/04/05 05:07:02;;;;;;;9.88;1.55;;;;;;;13.30;94.46;100230.38;5017864;28;20033;-67
2024/04/05 05:09:28;;;;;;;6.97;1.73;;;;;;;13.02;95.26;100230.28;5045257;28;20029;-68
2024/04/05 05:11:54;;;;;;;6.47;0.82;;;;;;;12.96;96.47;100231.00;5026986;28;20052;-68
2024/04/05 05:14:19;;;;;;;4.70;1.48;;;;;;;13.02;95.22;100240.31;5044554;28;20031;-67
2024/04/05 05:16:45;;;;;;;13.13;1.70;;;;;;;13.00;95.83;100232.56;5026124;28;20120;-68
2024/04/05 05:19:10;;;;;;;7.63;0.80;;;;;;;13.04;95.74;100233.41;5023185;28;20038;-67
2024/04/05 05:21:38;;;;;;;8.85;1.83;;;;;;;13.17;94.30;100234.59;5026641;28;20029;-68
2024/04/05 05:24:04;;;;;;;3.35;0.95;;;;;;;13.29;94.48;100231.53;5044989;28;20029;-69
2024/04/05 05:26:30;;;;;;;14.52;2.63;;;;;;;13.34;93.88;100244.69;5064010;28;20078;-71
2024/04/05 05:28:56;;;;;;;8.05;1.08;;;;;;;13.37;94.00;100241.22;5030243;28;20049;-67
2024/04/05 05:31:21;;;;;;;7.70;1.30;;;;;;;13.45;93.72;100244.72;5033006;28;20120;-67
2024/04/05 05:33:47;;;;;;;7.25;1.17;;;;;;;13.45;93.33;100260.94;5011442;28;20029;-68
2024/04/05 05:36:13;;;;;;;11.90;1.48;;;;;;;13.52;93.38;100260.94;5041984;28;20029;-68
2024/04/05 05:38:39;;;;;;;2.78;1.08;;;;;;;13.51;93.21;100262.13;5023824;28;20144;-69
2024/04/05 05:41:04;;;;;;;8.52;1.40;;;;;;;13.49;93.38;100261.72;5056026;28;20107;-68
2024/04/05 05:43:30;;;;;;;11.50;1.13;;;;;;;13.50;93.58;100261.34;5007637;28;20573;-70
2024/04/05 05:45:55;;;;;;;7.50;0.80;;;;;;;13.52;93.92;100256.31;5023872;28;20491;-68
2024/04/05 05:48:21;;;;;;;5.43;0.90;;;;;;;13.50;93.75;100255.94;5024151;28;20037;-67
2024/04/05 05:50:46;;;;;;;3.63;1.20;;;;;;;13.48;93.39;100266.34;5041325;28;20029;-67
2024/04/05 05:53:12;;;;;;;8.32;1.35;;;;;;;13.42;93.08;100270.59;5026824;28;20029;-68
2024/04/05 05:55:37;;;;;;;10.48;1.27;;;;;;;13.49;93.58;100276.00;5036884;28;20036;-67
2024/04/05 05:58:03;;;;;;;8.35;1.33;;;;;;;13.45;93.92;100274.47;5025826;28;20021;-66
2024/04/05 06:00:30;;;;;;;9.63;1.80;;;;;;;13.35;93.56;100278.69;5049301;28;20029;-67
2024/04/05 06:02:55;;;;;;;7.15;1.15;;;;;;;13.34;94.81;100281.75;5035446;28;20036;-67
2024/04/05 06:05:23;;;;;;;11.65;1.80;;;;;;;13.54;94.70;100283.75;5030489;28;20030;-66
2024/04/05 06:07:50;;;;;;;6.65;1.38;;;;;;;13.58;93.88;100284.53;5054001;28;20100;-67
2024/04/05 06:10:16;;;;;;;5.03;1.20;;;;;;;13.61;93.69;100285.69;5029139;28;20026;-68
2024/04/05 06:12:42;;;;;;;7.03;2.33;;;;;;;13.75;93.39;100285.72;5032442;28;20031;-68
2024/04/05 06:15:07;;;;;;;5.72;0.85;;;;;;;13.77;93.16;100296.94;5042825;28;20402;-67
2024/04/05 06:17:36;;;;;;;9.40;1.08;;;;;;;13.63;92.96;100296.91;5042416;28;20016;-68
2024/04/05 06:20:06;;;;;;;3.50;1.02;;;;;;;13.61;93.72;100303.88;5043196;28;20156;-68
2024/04/05 06:22:33;;;;;;;8.23;1.35;;;;;;;13.65;93.60;100310.81;5031409;28;20498;-69
2024/04/05 06:24:59;;;;;;;6.10;2.00;;;;;;;13.59;93.79;100296.91;5044873;28;20112;-68
2024/04/05 06:27:25;;;;;;;8.57;2.58;;;;;;;13.56;93.78;100305.03;5017863;28;20168;-67
2024/04/05 06:29:55;;;;;;;2.72;0.90;;;;;;;13.65;93.21;100310.03;5029607;28;20048;-68
2024/04/05 06:32:21;;;;;;;7.18;1.35;;;;;;;13.61;93.41;100309.28;5030152;28;20095;-68
2024/04/05 06:34:48;;;;;;;8.82;1.67;;;;;;;13.80;93.39;100311.66;5062561;28;20029;-68
2024/04/05 06:37:14;;;;;;;7.75;1.67;;;;;;;13.86;93.04;100316.28;5045523;28;20053;-69
2024/04/05 06:39:40;;;;;;;6.38;1.02;;;;;;;13.88;92.81;100308.53;5049820;28;20029;-68
2024/04/05 06:42:06;;;;;;;6.10;1.05;;;;;;;14.05;91.98;100301.63;5049496;28;20068;-67
2024/04/05 06:44:35;;;;;;;7.05;1.00;;;;;;;13.88;92.71;100305.84;5061052;28;20525;-69
2024/04/05 06:47:05;;;;;;;11.32;1.85;;;;;;;14.08;92.14;100304.31;5067544;28;20410;-69
2024/04/05 06:49:37;;;;;;;1.48;0.90;;;;;;;14.20;91.45;100317.47;5024634;28;20025;-70
2024/04/05 06:52:05;;;;;;;7.47;0.85;;;;;;;14.33;91.63;100310.53;5041743;28;20136;-68
2024/04/05 06:54:44;;;;;;;5.65;1.45;;;;;;;14.45;90.87;100310.16;5031290;28;20078;-70
2024/04/05 06:57:10;;;;;;;2.75;1.00;;;;;;;14.43;90.60;100301.63;5050491;28;20033;-68
2024/04/05 06:59:36;;;;;;;8.20;0.95;;;;;;;14.54;90.00;100308.97;5048780;28;20044;-68
2024/04/05 07:02:03;;;;;;;8.55;1.73;;;;;;;14.34;89.72;100314.03;5015799;28;20046;-68
2024/04/05 07:04:31;;;;;;;5.40;1.13;;;;;;;14.27;89.81;100316.69;5050239;28;20072;-68
2024/04/05 07:06:57;;;;;;;8.65;1.30;;;;;;;14.24;91.20;100318.25;5038390;28;20044;-68
2024/04/05 07:09:23;;;;;;;8.77;1.55;;;;;;;14.40;90.41;100324.06;5041784;28;20026;-68
2024/04/05 07:11:49;;;;;;;2.22;0.77;;;;;;;14.44;89.84;100319.41;5063641;28;20067;-68
2024/04/05 07:14:17;;;;;;;13.73;1.17;;;;;;;14.53;90.23;100315.53;5026918;28;20025;-67
2024/04/05 07:16:43;;;;;;;6.20;1.17;;;;;;;14.64;89.48;100316.28;5046197;28;20037;-68
2024/04/05 07:19:10;;;;;;;9.23;1.38;;;;;;;14.59;89.57;100319.41;5046019;28;20428;-68
2024/04/05 07:21:35;;;;;;;10.20;0.93;;;;;;;14.66;89.80;100324.81;5032908;28;20069;-68
2024/04/05 07:24:01;;;;;;;5.32;1.02;;;;;;;14.79;88.80;100328.69;5031246;28;20580;-67
2024/04/05 07:26:27;;;;;;;10.60;2.15;;;;;;;14.74;88.96;100324.41;5032214;28;20129;-68
2024/04/05 07:28:53;;;;;;;3.70;1.17;;;;;;;14.72;88.33;100321.31;5017514;28;20111;-68
2024/04/05 07:31:18;;;;;;;13.25;1.33;;;;;;;14.65;89.25;100320.56;5020006;28;20478;-67
2024/04/05 07:33:44;;;;;;;11.85;0.88;;;;;;;14.53;89.98;100324.47;5036762;28;20032;-68
2024/04/05 07:36:10;;;;;;;10.55;1.13;;;;;;;14.61;89.44;100319.78;5038712;28;20047;-67
2024/04/05 07:38:35;;;;;;;6.65;1.08;;;;;;;14.70;88.72;100325.59;5029273;28;20041;-68
2024/04/05 07:41:03;;;;;;;7.32;1.42;;;;;;;14.75;89.25;100327.91;5036773;28;20084;-68
2024/04/05 07:43:28;;;;;;;7.07;1.08;;;;;;;14.76;89.70;100315.88;5049790;28;20410;-67
2024/04/05 07:45:56;;;;;;;5.60;0.98;;;;;;;14.66;90.14;100317.47;5036479;28;20037;-68
2024/04/05 07:48:21;;;;;;;7.95;0.98;;;;;;;14.76;90.09;100321.31;5028985;28;20681;-68
2024/04/05 07:50:47;;;;;;;3.20;0.90;;;;;;;14.88;89.13;100318.19;5027648;28;20056;-67
2024/04/05 07:53:12;;;;;;;9.55;1.42;;;;;;;14.85;89.27;100317.03;5028238;28;20598;-67
2024/04/05 07:55:38;;;;;;;11.95;1.75;;;;;;;14.95;89.07;100318.94;5031590;28;20036;-68
2024/04/05 07:58:04;;;;;;;3.97;0.88;;;;;;;14.95;89.42;100329.78;5029784;28;20082;-67
2024/04/05 08:00:30;;;;;;;8.88;1.45;;;;;;;14.99;89.60;100327.06;5027901;28;20025;-67
2024/04/05 08:02:55;;;;;;;4.30;1.58;;;;;;;15.07;89.02;100323.16;5031574;28;20125;-67
2024/04/05 08:05:21;;;;;;;8.40;1.02;;;;;;;15.02;89.48;100326.28;5027791;28;20068;-67
2024/04/05 08:07:46;;;;;;;4.63;1.50;;;;;;;15.05;90.07;100322.78;5042863;28;20096;-67
2024/04/05 08:10:12;;;;;;;9.30;1.13;;;;;;;15.05;89.88;100311.94;5026650;28;20033;-67
2024/04/05 08:12:42;;;;;;;2.70;0.90;;;;;;;15.19;90.04;100312.63;5026244;28;20037;-67
2024/04/05 08:15:09;;;;;;;8.80;1.40;;;;;;;15.31;90.04;100301.34;5041517;28;20029;-69
2024/04/05 08:17:35;;;;;;;5.97;1.67;;;;;;;15.44;89.70;100299.00;5031221;28;20080;-69
2024/04/05 08:20:00;;;;;;;8.18;0.82;;;;;;;15.56;88.80;100298.56;5027731;28;20030;-70
2024/04/05 08:22:26;;;;;;;3.85;1.10;;;;;;;15.42;89.28;100292.44;5026427;28;20063;-67
2024/04/05 08:24:51;;;;;;;7.63;1.38;;;;;;;15.51;90.06;100293.53;5059199;28;20033;-67
2024/04/05 08:27:17;;;;;;;10.75;1.17;;;;;;;15.52;90.62;100289.66;5045648;28;20033;-67
2024/04/05 08:29:42;;;;;;;4.22;1.45;;;;;;;15.56;90.31;100285.00;5024260;28;20033;-67
2024/04/05 08:32:08;;;;;;;5.20;0.82;;;;;;;15.61;90.54;100276.41;5045094;28;20083;-67
2024/04/05 08:34:34;;;;;;;4.53;1.42;;;;;;;15.62;90.01;100271.75;5045082;28;20032;-69
2024/04/05 08:37:00;;;;;;;8.60;1.58;;;;;;;15.83;89.85;100272.38;5040606;28;20029;-66
2024/04/05 08:39:26;;;;;;;5.28;1.65;;;;;;;15.84;90.50;100268.50;5040473;28;20032;-68
2024/04/05 08:42:02;;;;;;;4.82;1.33;;;;;;;15.79;92.59;100268.16;5022827;28;20109;-67
2024/04/05 08:44:29;;;;;;;9.10;1.70;;;;;;;16.14;91.93;100284.19;5013113;28;20041;-67
2024/04/05 08:46:55;;;;;;;4.05;0.90;;;;;;;16.37;92.13;100273.50;5030073;28;20041;-68
2024/04/05 08:49:24;;;;;;;8.98;1.35;;;;;;;16.72;91.62;100272.38;5024758;28;20033;-67
2024/04/05 08:51:51;;;;;;;4.13;1.77;;;;;;;17.07;91.50;100269.25;5064964;28;20029;-68
2024/04/05 08:54:16;;;;;;;4.47;1.08;;;;;;;17.34;88.06;100272.78;5023661;28;20395;-68
2024/04/05 08:56:45;;;;;;;5.47;1.42;;;;;;;17.61;86.60;100265.44;5045683;28;20048;-67
2024/04/05 08:59:11;;;;;;;8.00;1.48;;;;;;;17.80;84.79;100259.31;5023231;28;20060;-67
2024/04/05 09:01:36;;;;;;;6.90;1.77;;;;;;;17.94;85.66;100259.06;5025229;28;20064;-69
2024/04/05 09:04:03;;;;;;;17.83;1.70;;;;;;;18.13;83.88;100259.53;5036942;28;20053;-67
2024/04/05 09:06:29;;;;;;;3.42;1.05;;;;;;;18.47;82.07;100254.69;5049098;28;20534;-68
2024/04/05 09:08:54;;;;;;;2.47;1.08;;;;;;;18.55;79.76;100259.59;5038549;28;20033;-67
2024/04/05 09:11:22;;;;;;;3.58;0.90;;;;;;;18.22;79.11;100267.94;5023319;28;20549;-67
2024/04/05 09:14:04;;;;;;;1.90;1.05;;;;;;;18.15;81.17;100270.81;5040751;28;20033;-67
2024/04/05 09:16:34;;;;;;;4.65;1.58;;;;;;;18.21;80.95;100278.09;5024358;28;20486;-68
2024/04/05 09:19:10;;;;;;;9.02;1.40;;;;;;;18.38;81.35;100271.56;5042699;28;20045;-68
2024/04/05 09:21:42;;;;;;;4.07;1.52;;;;;;;18.56;79.07;100265.81;5058485;28;20414;-68
2024/04/05 09:24:07;;;;;;;10.10;2.03;;;;;;;18.51;79.76;100256.16;5025170;28;20037;-68
2024/04/05 09:26:34;;;;;;;3.97;1.05;;;;;;;18.49;79.00;100255.81;5041905;28;20028;-67
2024/04/05 09:29:06;;;;;;;7.35;1.52;;;;;;;18.55;79.89;100258.81;5026146;28;20080;-71
2024/04/05 09:31:31;;;;;;;2.33;0.93;;;;;;;18.59;79.97;100252.13;5038789;28;20038;-68
2024/04/05 09:34:08;;;;;;;6.70;0.57;;;;;;;18.51;78.35;100258.13;5031688;28;20099;-69
2024/04/05 09:36:38;;;;;;;3.30;0.80;;;;;;;18.37;79.99;100252.91;5041383;28;20033;-69
2024/04/05 09:39:10;;;;;;;1.42;0.80;;;;;;;18.40;79.33;100241.94;5030762;28;20387;-69
2024/04/05 09:41:35;;;;;;;2.38;0.77;;;;;;;18.48;78.84;100237.13;5026684;28;20040;-69
2024/04/05 09:44:06;;;;;;;5.40;1.35;;;;;;;18.32;80.17;100240.50;5035893;28;20040;-68
2024/04/05 09:46:32;;;;;;;5.68;1.15;;;;;;;18.51;80.04;100236.28;5030700;28;20041;-67
2024/04/05 09:49:01;;;;;;;7.22;1.13;;;;;;;18.44;80.22;100244.63;5043797;28;20034;-69
2024/04/05 09:51:42;;;;;;;4.90;1.42;;;;;;;18.63;80.83;100254.78;5024498;28;20036;-69
2024/04/05 09:54:10;;;;;;;6.80;1.58;;;;;;;18.73;79.54;100253.81;5044879;28;20080;-68
2024/04/05 09:56:38;;;;;;;6.25;1.08;;;;;;;18.59;79.98;100245.88;5041971;28;20037;-69
2024/04/05 09:59:10;;;;;;;2.95;1.02;;;;;;;18.75;79.44;100249.47;5067410;28;20029;-68
2024/04/05 10:01:39;;;;;;;8.25;1.60;;;;;;;18.72;79.35;100235.88;5013421;28;20525;-68
2024/04/05 10:04:07;;;;;;;3.75;1.02;;;;;;;18.79;80.05;100228.31;5033419;28;20076;-68
2024/04/05 10:06:38;;;;;;;5.93;0.77;;;;;;;18.88;77.74;100225.03;5027739;28;20048;-68
2024/04/05 10:09:13;;;;;;;6.78;1.23;;;;;;;18.87;78.30;100231.69;5025082;28;20030;-68
2024/04/05 10:11:40;;;;;;;6.38;2.28;;;;;;;18.87;79.81;100227.00;5033057;28;20521;-69
2024/04/05 10:14:05;;;;;;;11.40;1.92;;;;;;;19.04;78.10;100225.09;5032289;28;20049;-67
2024/04/05 10:16:31;;;;;;;5.40;1.33;;;;;;;19.04;77.87;100227.84;5029946;28;20442;-67
2024/04/05 10:18:56;;;;;;;10.45;1.65;;;;;;;19.07;77.75;100223.47;5046401;28;20034;-68
2024/04/05 10:21:32;;;;;;;9.13;0.82;;;;;;;19.21;77.89;100223.94;5035070;28;20491;-67
2024/04/05 10:23:59;;;;;;;5.60;1.13;;;;;;;19.28;77.61;100221.03;5010074;28;20029;-68
2024/04/05 10:26:25;;;;;;;4.90;1.27;;;;;;;19.31;76.33;100201.09;5033507;28;20509;-71
2024/04/05 10:29:00;;;;;;;4.00;0.90;;;;;;;19.28;78.28;100209.38;5029509;28;20017;-68
2024/04/05 10:31:26;;;;;;;4.22;0.60;;;;;;;19.15;77.06;100197.56;5042079;28;20463;-68
2024/04/05 10:33:52;;;;;;;5.13;0.73;;;;;;;19.20;77.54;100189.63;5028991;28;20037;-68
2024/04/05 10:36:17;;;;;;;7.95;0.90;;;;;;;19.08;77.97;100184.84;5028361;28;20036;-68
2024/04/05 10:38:43;;;;;;;6.10;1.02;;;;;;;19.16;78.32;100180.78;5032351;28;20590;-68
2024/04/05 10:41:08;;;;;;;11.27;1.20;;;;;;;19.26;79.00;100179.00;5031311;28;20437;-69
2024/04/05 10:43:34;;;;;;;3.28;0.65;;;;;;;19.08;78.31;100178.59;5045050;28;20406;-72
2024/04/05 10:46:01;;;;;;;3.47;0.98;;;;;;;19.16;78.99;100175.31;5034410;28;20042;-67
2024/04/05 10:48:26;;;;;;;4.20;0.98;;;;;;;19.19;78.78;100179.91;5036845;28;20021;-68
2024/04/05 10:50:53;;;;;;;2.45;1.15;;;;;;;19.29;77.70;100165.25;5039989;28;20038;-69
2024/04/05 10:53:20;;;;;;;1.83;0.73;;;;;;;19.17;78.14;100171.38;5030469;28;20522;-67
2024/04/05 10:55:47;;;;;;;4.32;0.95;;;;;;;19.18;78.62;100159.25;5045448;28;20061;-68
2024/04/05 10:58:13;;;;;;;5.30;1.08;;;;;;;19.11;79.25;100162.16;5044567;28;20614;-68
2024/04/05 11:00:40;;;;;;;5.30;1.10;;;;;;;19.02;79.16;100153.78;5062997;28;20029;-68
2024/04/05 11:03:10;;;;;;;7.13;1.85;;;;;;;18.82;80.86;100150.31;5029469;28;20041;-67
2024/04/05 11:05:36;;;;;;;3.83;1.25;;;;;;;18.98;79.74;100139.44;5030614;28;20034;-68
2024/04/05 11:08:04;;;;;;;7.78;0.88;;;;;;;18.97;79.47;100137.88;5031392;28;20030;-67
2024/04/05 11:10:36;;;;;;;5.47;1.35;;;;;;;18.98;79.44;100142.16;5007805;28;20037;-69
2024/04/05 11:13:25;;;;;;;14.82;1.40;;;;;;;18.96;79.10;100128.16;5042592;28;20048;-67
2024/04/05 11:16:00;;;;;;;5.72;1.20;;;;;;;18.99;79.98;100116.41;5050386;28;20475;-68
2024/04/05 11:18:26;;;;;;;2.33;1.25;;;;;;;18.91;78.83;100112.31;5044681;28;20025;-68
2024/04/05 11:20:51;;;;;;;3.88;0.90;;;;;;;18.96;79.52;100100.09;5011679;28;20040;-68